createdAt,value
2018-02-15T00:00:03.725Z,1000.0
2018-02-15T00:01:04.466Z,999.9
2018-02-15T00:02:05.191Z,999.9
2018-02-15T00:03:05.953Z,1000.0
2018-02-15T00:04:06.742Z,999.9
2018-02-15T00:05:07.459Z,999.8
2018-02-15T00:06:08.186Z,999.9
2018-02-15T00:07:08.930Z,999.9
2018-02-15T00:08:09.688Z,999.8
2018-02-15T00:09:10.404Z,999.8
2018-02-15T00:10:11.118Z,999.8
2018-02-15T00:11:11.838Z,999.7
2018-02-15T00:12:12.559Z,999.8
2018-02-15T00:13:13.282Z,999.8
2018-02-15T00:14:13.996Z,999.7
2018-02-15T00:15:14.705Z,999.6
2018-02-15T00:16:15.439Z,999.5
2018-02-15T00:17:16.165Z,999.6
2018-02-15T00:18:16.935Z,999.5
2018-02-15T00:19:17.708Z,999.7
2018-02-15T00:20:18.440Z,999.6
2018-02-15T00:21:19.148Z,999.6
2018-02-15T00:22:19.858Z,999.7
2018-02-15T00:23:20.580Z,999.6
2018-02-15T00:24:21.289Z,999.6
2018-02-15T00:25:22.008Z,999.6
2018-02-15T00:26:22.717Z,999.7
2018-02-15T00:27:23.427Z,999.6
2018-02-15T00:28:24.160Z,999.7
2018-02-15T00:29:24.878Z,999.6
2018-02-15T00:30:25.598Z,999.8
2018-02-15T00:31:26.319Z,999.7
2018-02-15T00:32:27.036Z,999.6
2018-02-15T00:33:27.760Z,999.6
2018-02-15T00:34:28.499Z,999.6
2018-02-15T00:35:29.336Z,1000.0
2018-02-15T00:36:30.073Z,999.9
2018-02-15T00:37:30.795Z,999.9
2018-02-15T00:38:31.503Z,999.9
2018-02-15T00:39:32.224Z,1000.0
2018-02-15T00:40:32.946Z,999.8
2018-02-15T00:41:33.650Z,999.9
2018-02-15T00:42:34.366Z,1000.0
2018-02-15T00:43:35.078Z,999.9
2018-02-15T00:44:35.787Z,1000.0
2018-02-15T00:45:36.507Z,1000.1
2018-02-15T00:46:37.230Z,1000.2
2018-02-15T00:47:37.935Z,1000.1
2018-02-15T00:48:38.640Z,1000.1
2018-02-15T00:49:39.426Z,1000.0
2018-02-15T00:50:40.150Z,1000.1
2018-02-15T00:51:40.874Z,1000.1
2018-02-15T00:52:41.588Z,1000.1
2018-02-15T00:53:42.308Z,1000.1
2018-02-15T00:54:43.028Z,1000.1
2018-02-15T00:55:43.735Z,1000.1
2018-02-15T00:56:44.461Z,1000.1
2018-02-15T00:57:45.177Z,1000.1
2018-02-15T00:58:45.898Z,1000.1
2018-02-15T00:59:46.610Z,1000.3
2018-02-15T01:00:47.297Z,1000.2
2018-02-15T01:01:48.009Z,1000.3
2018-02-15T01:02:48.789Z,1000.2
2018-02-15T01:03:49.557Z,1000.2
2018-02-15T01:04:50.306Z,1000.2
2018-02-15T01:05:50.971Z,1000.2
2018-02-15T01:06:51.738Z,1000.1
2018-02-15T01:07:52.457Z,1000.0
2018-02-15T01:08:53.165Z,1000.0
2018-02-15T01:09:53.896Z,999.9
2018-02-15T01:10:54.679Z,999.9
2018-02-15T01:11:55.405Z,999.8
2018-02-15T01:12:56.119Z,999.9
2018-02-15T01:13:56.914Z,999.9
2018-02-15T01:14:57.600Z,999.9
2018-02-15T01:15:58.328Z,999.9
2018-02-15T01:16:59.117Z,999.9
2018-02-15T01:17:59.837Z,999.9
2018-02-15T01:19:00.578Z,999.8
2018-02-15T01:20:01.296Z,999.9
2018-02-15T01:21:02.078Z,999.9
2018-02-15T01:22:02.790Z,999.9
2018-02-15T01:23:03.497Z,999.9
2018-02-15T01:24:04.233Z,999.9
2018-02-15T01:25:04.979Z,999.8
2018-02-15T01:26:05.692Z,999.9
2018-02-15T01:27:06.414Z,999.8
2018-02-15T01:28:07.169Z,999.8
2018-02-15T01:29:07.878Z,999.9
2018-02-15T01:30:08.655Z,999.8
2018-02-15T01:31:09.446Z,999.7
2018-02-15T01:32:10.167Z,999.7
2018-02-15T01:33:10.885Z,999.7
2018-02-15T01:34:11.606Z,999.6
2018-02-15T01:35:12.368Z,999.5
2018-02-15T01:36:13.058Z,999.4
2018-02-15T01:37:13.777Z,999.4
2018-02-15T01:38:14.487Z,999.5
2018-02-15T01:39:15.218Z,999.5
2018-02-15T01:40:15.927Z,999.5
2018-02-15T01:41:16.649Z,999.5
2018-02-15T01:42:17.376Z,999.5
2018-02-15T01:43:18.091Z,999.4
2018-02-15T01:44:18.916Z,999.5
2018-02-15T01:45:19.627Z,999.4
2018-02-15T01:46:20.361Z,999.4
2018-02-15T01:47:21.087Z,999.5
2018-02-15T01:48:21.876Z,999.5
2018-02-15T01:49:22.593Z,999.5
2018-02-15T01:50:23.324Z,999.5
2018-02-15T01:51:24.051Z,999.5
2018-02-15T01:52:24.831Z,999.4
2018-02-15T01:53:25.570Z,999.4
2018-02-15T01:54:26.275Z,999.4
2018-02-15T01:55:27.002Z,999.5
2018-02-15T01:56:27.757Z,999.4
2018-02-15T01:57:28.471Z,999.4
2018-02-15T01:58:29.191Z,999.5
2018-02-15T01:59:29.898Z,999.3
2018-02-15T02:00:30.617Z,999.4
2018-02-15T02:01:31.377Z,999.3
2018-02-15T02:02:32.095Z,999.4
2018-02-15T02:03:32.808Z,999.3
2018-02-15T02:04:33.521Z,999.2
2018-02-15T02:05:34.238Z,999.3
2018-02-15T02:06:35.000Z,999.2
2018-02-15T02:07:35.762Z,999.2
2018-02-15T02:08:36.488Z,999.2
2018-02-15T02:09:37.197Z,999.2
2018-02-15T02:10:37.910Z,999.1
2018-02-15T02:11:38.611Z,999.0
2018-02-15T02:12:39.313Z,999.2
2018-02-15T02:13:40.026Z,999.2
2018-02-15T02:14:40.736Z,999.3
2018-02-15T02:15:41.459Z,999.2
2018-02-15T02:16:42.176Z,999.1
2018-02-15T02:17:42.900Z,999.1
2018-02-15T02:18:43.673Z,999.1
2018-02-15T02:19:44.467Z,999.0
2018-02-15T02:20:45.250Z,999.1
2018-02-15T02:21:45.972Z,999.0
2018-02-15T02:22:46.699Z,998.9
2018-02-15T02:23:47.423Z,998.9
2018-02-15T02:24:48.192Z,998.9
2018-02-15T02:25:48.951Z,998.8
2018-02-15T02:26:49.667Z,998.8
2018-02-15T02:27:50.483Z,998.9
2018-02-15T02:28:51.256Z,998.9
2018-02-15T02:29:52.048Z,999.1
2018-02-15T02:30:52.779Z,999.1
2018-02-15T02:31:53.488Z,999.0
2018-02-15T02:32:54.199Z,999.0
2018-02-15T02:33:54.979Z,999.1
2018-02-15T02:34:55.750Z,999.1
2018-02-15T02:35:56.471Z,999.1
2018-02-15T02:36:57.190Z,999.1
2018-02-15T02:37:57.908Z,999.1
2018-02-15T02:38:58.628Z,999.1
2018-02-15T02:39:59.346Z,999.0
2018-02-15T02:41:00.076Z,999.0
2018-02-15T02:42:00.799Z,999.0
2018-02-15T02:43:01.578Z,999.0
2018-02-15T02:44:02.292Z,998.9
2018-02-15T02:45:03.022Z,998.9
2018-02-15T02:46:03.787Z,998.9
2018-02-15T02:47:04.510Z,998.9
2018-02-15T02:48:05.296Z,998.8
2018-02-15T02:49:06.088Z,998.8
2018-02-15T02:50:06.809Z,998.8
2018-02-15T02:51:07.510Z,998.7
2018-02-15T02:52:08.232Z,998.7
2018-02-15T02:53:08.959Z,998.6
2018-02-15T02:54:09.753Z,998.6
2018-02-15T02:55:10.516Z,998.5
2018-02-15T02:56:11.278Z,998.6
2018-02-15T02:57:12.011Z,998.5
2018-02-15T02:58:12.718Z,998.6
2018-02-15T02:59:13.485Z,998.5
2018-02-15T03:00:14.258Z,998.6
2018-02-15T03:01:14.979Z,998.6
2018-02-15T03:02:15.693Z,998.5
2018-02-15T03:03:16.490Z,998.5
2018-02-15T03:04:17.215Z,998.5
2018-02-15T03:05:17.939Z,998.4
2018-02-15T03:06:18.661Z,998.4
2018-02-15T03:07:19.373Z,998.4
2018-02-15T03:08:20.149Z,998.4
2018-02-15T03:09:20.857Z,998.3
2018-02-15T03:10:21.570Z,998.3
2018-02-15T03:11:22.300Z,998.3
2018-02-15T03:12:23.021Z,998.3
2018-02-15T03:13:23.740Z,998.3
2018-02-15T03:14:24.515Z,998.3
2018-02-15T03:15:25.240Z,998.2
2018-02-15T03:16:25.956Z,998.1
2018-02-15T03:17:26.688Z,998.2
2018-02-15T03:18:27.465Z,998.1
2018-02-15T03:19:28.185Z,998.1
2018-02-15T03:20:28.951Z,998.1
2018-02-15T03:21:29.675Z,998.1
2018-02-15T03:22:30.378Z,998.1
2018-02-15T03:23:31.113Z,998.1
2018-02-15T03:24:31.820Z,998.1
2018-02-15T03:25:32.589Z,998.1
2018-02-15T03:26:33.323Z,998.1
2018-02-15T03:27:34.030Z,998.1
2018-02-15T03:28:34.835Z,998.1
2018-02-15T03:29:35.559Z,998.1
2018-02-15T03:30:36.393Z,998.1
2018-02-15T03:31:37.124Z,998.2
2018-02-15T03:32:37.866Z,998.1
2018-02-15T03:33:38.585Z,998.1
2018-02-15T03:34:39.296Z,998.1
2018-02-15T03:35:40.023Z,998.1
2018-02-15T03:36:40.803Z,998.0
2018-02-15T03:37:41.566Z,997.9
2018-02-15T03:38:42.271Z,997.9
2018-02-15T03:39:43.086Z,998.0
2018-02-15T03:40:43.838Z,998.0
2018-02-15T03:41:44.551Z,997.9
2018-02-15T03:42:45.331Z,998.0
2018-02-15T03:43:46.116Z,997.9
2018-02-15T03:44:46.839Z,997.9
2018-02-15T03:45:47.537Z,997.9
2018-02-15T03:46:48.250Z,998.0
2018-02-15T03:47:49.013Z,998.0
2018-02-15T03:48:49.730Z,997.9
2018-02-15T03:49:50.452Z,997.9
2018-02-15T03:50:51.239Z,997.9
2018-02-15T03:51:51.948Z,997.9
2018-02-15T03:52:52.719Z,997.8
2018-02-15T03:53:53.427Z,997.9
2018-02-15T03:54:54.222Z,997.9
2018-02-15T03:55:54.926Z,997.9
2018-02-15T03:56:55.640Z,998.0
2018-02-15T03:57:56.343Z,997.8
2018-02-15T03:58:57.077Z,997.8
2018-02-15T03:59:57.834Z,997.9
2018-02-15T04:00:58.541Z,997.9
2018-02-15T04:01:59.260Z,997.8
2018-02-15T04:03:00.027Z,997.9
2018-02-15T04:04:00.816Z,997.9
2018-02-15T04:05:01.539Z,997.9
2018-02-15T04:06:02.256Z,997.9
2018-02-15T04:07:02.979Z,997.9
2018-02-15T04:08:03.699Z,997.8
2018-02-15T04:09:04.408Z,997.8
2018-02-15T04:10:05.118Z,997.9
2018-02-15T04:11:05.842Z,997.9
2018-02-15T04:12:06.558Z,997.8
2018-02-15T04:13:07.334Z,997.8
2018-02-15T04:14:08.112Z,997.8
2018-02-15T04:15:08.815Z,997.8
2018-02-15T04:16:09.538Z,997.8
2018-02-15T04:17:10.266Z,997.8
2018-02-15T04:18:10.996Z,997.7
2018-02-15T04:19:11.719Z,997.7
2018-02-15T04:20:12.443Z,997.7
2018-02-15T04:21:13.164Z,997.6
2018-02-15T04:22:13.891Z,997.6
2018-02-15T04:23:14.661Z,997.6
2018-02-15T04:24:15.433Z,997.5
2018-02-15T04:25:16.198Z,997.5
2018-02-15T04:26:16.930Z,997.5
2018-02-15T04:27:17.642Z,997.5
2018-02-15T04:28:18.479Z,997.5
2018-02-15T04:29:19.182Z,997.4
2018-02-15T04:30:19.895Z,997.5
2018-02-15T04:31:20.606Z,997.4
2018-02-15T04:32:21.339Z,997.4
2018-02-15T04:33:22.103Z,997.4
2018-02-15T04:34:22.835Z,997.3
2018-02-15T04:35:23.558Z,997.3
2018-02-15T04:36:24.294Z,997.3
2018-02-15T04:37:25.083Z,997.3
2018-02-15T04:38:25.968Z,997.4
2018-02-15T04:39:26.677Z,997.3
2018-02-15T04:40:27.462Z,997.3
2018-02-15T04:41:28.185Z,997.3
2018-02-15T04:42:28.925Z,997.3
2018-02-15T04:43:29.629Z,997.3
2018-02-15T04:44:30.358Z,997.2
2018-02-15T04:45:31.082Z,997.3
2018-02-15T04:46:31.792Z,997.3
2018-02-15T04:47:32.517Z,997.3
2018-02-15T04:48:33.366Z,997.1
2018-02-15T04:49:34.085Z,997.3
2018-02-15T04:50:34.810Z,997.3
2018-02-15T04:51:35.586Z,997.2
2018-02-15T04:52:36.296Z,997.2
2018-02-15T04:53:37.023Z,997.1
2018-02-15T04:54:37.739Z,997.1
2018-02-15T04:55:38.455Z,997.1
2018-02-15T04:56:39.245Z,997.1
2018-02-15T04:57:39.949Z,997.1
2018-02-15T04:58:40.666Z,997.0
2018-02-15T04:59:41.386Z,997.1
2018-02-15T05:00:42.110Z,996.9
2018-02-15T05:01:42.804Z,997.0
2018-02-15T05:02:43.516Z,996.8
2018-02-15T05:03:44.224Z,997.1
2018-02-15T05:04:45.001Z,996.9
2018-02-15T05:05:45.761Z,996.7
2018-02-15T05:06:46.503Z,996.9
2018-02-15T05:07:47.205Z,996.8
2018-02-15T05:08:47.918Z,996.8
2018-02-15T05:09:48.638Z,996.8
2018-02-15T05:10:49.354Z,996.8
2018-02-15T05:11:50.080Z,996.8
2018-02-15T05:12:50.805Z,996.9
2018-02-15T05:13:51.538Z,996.9
2018-02-15T05:14:52.245Z,996.9
2018-02-15T05:15:52.976Z,996.9
2018-02-15T05:16:53.746Z,996.9
2018-02-15T05:17:54.536Z,997.0
2018-02-15T05:18:55.296Z,996.7
2018-02-15T05:19:56.038Z,996.9
2018-02-15T05:20:56.761Z,996.8
2018-02-15T05:21:57.539Z,996.9
2018-02-15T05:22:58.251Z,996.9
2018-02-15T05:23:59.046Z,996.9
2018-02-15T05:24:59.760Z,996.9
2018-02-15T05:26:00.464Z,996.8
2018-02-15T05:27:01.176Z,996.7
2018-02-15T05:28:01.905Z,996.8
2018-02-15T05:29:02.680Z,996.7
2018-02-15T05:30:03.470Z,996.8
2018-02-15T05:31:04.185Z,996.7
2018-02-15T05:32:04.909Z,996.8
2018-02-15T05:33:05.631Z,996.8
2018-02-15T05:34:06.380Z,996.9
2018-02-15T05:35:07.107Z,996.9
2018-02-15T05:36:07.819Z,996.8
2018-02-15T05:37:08.544Z,996.8
2018-02-15T05:38:09.319Z,996.8
2018-02-15T05:39:10.077Z,996.7
2018-02-15T05:40:10.812Z,996.7
2018-02-15T05:41:11.615Z,996.7
2018-02-15T05:42:12.337Z,996.7
2018-02-15T05:43:13.059Z,996.8
2018-02-15T05:44:13.784Z,996.7
2018-02-15T05:45:14.504Z,996.7
2018-02-15T05:46:15.272Z,996.9
2018-02-15T05:47:15.976Z,996.9
2018-02-15T05:48:16.692Z,996.9
2018-02-15T05:49:17.412Z,996.9
2018-02-15T05:50:18.132Z,996.9
2018-02-15T05:51:18.860Z,996.9
2018-02-15T05:52:19.576Z,996.8
2018-02-15T05:53:20.302Z,996.8
2018-02-15T05:54:21.060Z,996.8
2018-02-15T05:55:21.786Z,996.8
2018-02-15T05:56:22.499Z,996.8
2018-02-15T05:57:23.204Z,996.9
2018-02-15T05:58:23.983Z,996.9
2018-02-15T05:59:24.779Z,996.9
2018-02-15T06:00:25.495Z,996.8
2018-02-15T06:01:26.227Z,996.8
2018-02-15T06:02:27.021Z,996.8
2018-02-15T06:03:27.779Z,996.8
2018-02-15T06:04:28.499Z,996.7
2018-02-15T06:05:29.216Z,996.7
2018-02-15T06:06:29.925Z,996.8
2018-02-15T06:07:30.650Z,996.8
2018-02-15T06:08:31.369Z,996.8
2018-02-15T06:09:32.122Z,996.7
2018-02-15T06:10:32.850Z,996.7
2018-02-15T06:11:33.610Z,996.7
2018-02-15T06:12:34.392Z,996.8
2018-02-15T06:13:35.100Z,996.8
2018-02-15T06:14:35.811Z,996.8
2018-02-15T06:15:36.634Z,996.9
2018-02-15T06:16:37.410Z,996.8
2018-02-15T06:17:38.112Z,996.8
2018-02-15T06:18:38.828Z,996.8
2018-02-15T06:19:39.627Z,996.8
2018-02-15T06:20:40.385Z,996.8
2018-02-15T06:21:41.108Z,996.8
2018-02-15T06:22:41.928Z,996.8
2018-02-15T06:23:42.708Z,996.8
2018-02-15T06:24:43.414Z,996.8
2018-02-15T06:25:44.203Z,996.8
2018-02-15T06:26:44.969Z,996.9
2018-02-15T06:27:45.689Z,996.8
2018-02-15T06:28:46.399Z,996.8
2018-02-15T06:29:47.176Z,996.9
2018-02-15T06:30:47.959Z,996.9
2018-02-15T06:31:48.729Z,996.9
2018-02-15T06:32:49.422Z,996.8
2018-02-15T06:33:50.116Z,996.9
2018-02-15T06:34:50.836Z,996.8
2018-02-15T06:35:51.591Z,996.9
2018-02-15T06:36:52.296Z,996.8
2018-02-15T06:37:53.011Z,996.8
2018-02-15T06:38:53.769Z,996.8
2018-02-15T06:39:54.499Z,996.8
2018-02-15T06:40:55.296Z,996.8
2018-02-15T06:41:56.038Z,996.8
2018-02-15T06:42:56.757Z,996.8
2018-02-15T06:43:57.497Z,996.9
2018-02-15T06:44:58.229Z,996.8
2018-02-15T06:45:58.996Z,996.8
2018-02-15T06:46:59.713Z,996.8
2018-02-15T06:48:00.438Z,996.8
2018-02-15T06:49:01.180Z,996.7
2018-02-15T06:50:01.888Z,996.8
2018-02-15T06:51:02.630Z,996.7
2018-02-15T06:52:03.343Z,996.6
2018-02-15T06:53:04.108Z,996.8
2018-02-15T06:54:04.805Z,996.8
2018-02-15T06:55:05.526Z,996.7
2018-02-15T06:56:06.240Z,996.7
2018-02-15T06:57:07.008Z,996.5
2018-02-15T06:58:07.746Z,996.8
2018-02-15T06:59:08.471Z,996.7
2018-02-15T07:00:09.201Z,996.6
2018-02-15T07:01:09.975Z,996.5
2018-02-15T07:02:10.699Z,996.6
2018-02-15T07:03:11.425Z,996.6
2018-02-15T07:04:12.158Z,996.6
2018-02-15T07:05:12.887Z,996.6
2018-02-15T07:06:13.679Z,996.5
2018-02-15T07:07:14.460Z,996.6
2018-02-15T07:08:15.266Z,996.5
2018-02-15T07:09:16.003Z,996.6
2018-02-15T07:10:16.734Z,996.6
2018-02-15T07:11:17.465Z,996.5
2018-02-15T07:12:18.173Z,996.6
2018-02-15T07:13:18.955Z,996.6
2018-02-15T07:14:19.680Z,996.6
2018-02-15T07:15:20.419Z,996.7
2018-02-15T07:16:21.188Z,996.7
2018-02-15T07:17:21.958Z,996.5
2018-02-15T07:18:22.825Z,996.6
2018-02-15T07:19:23.908Z,996.5
2018-02-15T07:20:24.878Z,996.4
2018-02-15T07:21:25.698Z,996.4
2018-02-15T07:22:26.466Z,996.4
2018-02-15T07:23:27.304Z,996.4
2018-02-15T07:24:28.057Z,996.4
2018-02-15T07:25:29.805Z,996.6
2018-02-15T07:26:32.296Z,996.5
2018-02-15T07:27:33.294Z,996.5
2018-02-15T07:28:34.076Z,996.5
2018-02-15T07:29:34.917Z,996.5
2018-02-15T07:30:35.839Z,996.5
2018-02-15T07:31:37.277Z,996.4
2018-02-15T07:32:38.331Z,996.5
2018-02-15T07:33:39.118Z,996.6
2018-02-15T07:34:40.000Z,996.5
2018-02-15T07:35:40.883Z,996.5
2018-02-15T07:36:41.660Z,996.6
2018-02-15T07:37:42.455Z,996.5
2018-02-15T07:38:43.194Z,996.5
2018-02-15T07:39:43.983Z,996.4
2018-02-15T07:40:44.669Z,996.4
2018-02-15T07:41:45.398Z,996.3
2018-02-15T07:42:46.142Z,996.3
2018-02-15T07:43:46.904Z,996.3
2018-02-15T07:44:47.631Z,996.4
2018-02-15T07:45:48.425Z,996.3
2018-02-15T07:46:49.153Z,996.3
2018-02-15T07:47:49.932Z,996.3
2018-02-15T07:48:50.650Z,996.4
2018-02-15T07:49:51.375Z,996.5
2018-02-15T07:50:52.112Z,996.5
2018-02-15T07:51:52.854Z,996.5
2018-02-15T07:52:54.743Z,996.6
2018-02-15T07:53:55.940Z,996.6
2018-02-15T07:54:57.246Z,996.6
2018-02-15T07:55:58.058Z,996.6
2018-02-15T07:56:58.786Z,996.5
2018-02-15T07:57:59.600Z,996.7
2018-02-15T07:59:00.321Z,996.5
2018-02-15T08:00:01.060Z,996.5
2018-02-15T08:01:03.173Z,996.5
2018-02-15T08:02:04.187Z,996.5
2018-02-15T08:03:04.868Z,996.4
2018-02-15T08:04:05.629Z,996.5
2018-02-15T08:05:06.411Z,996.5
2018-02-15T08:06:07.131Z,996.4
2018-02-15T08:07:07.907Z,996.3
2018-02-15T08:08:08.675Z,996.4
2018-02-15T08:09:09.390Z,996.5
2018-02-15T08:10:10.121Z,996.4
2018-02-15T08:11:10.834Z,996.2
2018-02-15T08:12:11.560Z,996.3
2018-02-15T08:13:12.276Z,996.3
2018-02-15T08:14:13.104Z,996.3
2018-02-15T08:15:13.776Z,996.2
2018-02-15T08:16:14.559Z,996.3
2018-02-15T08:17:15.280Z,996.3
2018-02-15T08:18:16.009Z,996.4
2018-02-15T08:19:16.746Z,996.3
2018-02-15T08:20:17.488Z,996.4
2018-02-15T08:21:18.281Z,996.4
2018-02-15T08:22:18.979Z,996.3
2018-02-15T08:23:19.963Z,996.4
2018-02-15T08:24:20.681Z,996.4
2018-02-15T08:25:21.404Z,996.3
2018-02-15T08:26:22.136Z,996.3
2018-02-15T08:27:22.910Z,996.3
2018-02-15T08:28:23.639Z,996.3
2018-02-15T08:29:24.356Z,996.4
2018-02-15T08:30:25.073Z,996.3
2018-02-15T08:31:25.869Z,996.3
2018-02-15T08:32:26.606Z,996.4
2018-02-15T08:33:27.351Z,996.3
2018-02-15T08:34:28.058Z,996.3
2018-02-15T08:35:28.772Z,996.3
2018-02-15T08:36:29.522Z,996.3
2018-02-15T08:37:30.339Z,996.4
2018-02-15T08:38:31.085Z,996.4
2018-02-15T08:39:31.847Z,996.4
2018-02-15T08:40:32.649Z,996.3
2018-02-15T08:41:33.420Z,996.4
2018-02-15T08:42:34.151Z,996.4
2018-02-15T08:43:34.857Z,996.6
2018-02-15T08:44:35.593Z,996.4
2018-02-15T08:45:36.434Z,996.4
2018-02-15T08:46:38.014Z,996.4
2018-02-15T08:47:38.974Z,996.4
2018-02-15T08:48:39.696Z,996.3
2018-02-15T08:49:40.416Z,996.4
2018-02-15T08:50:41.206Z,996.4
2018-02-15T08:51:41.985Z,996.4
2018-02-15T08:52:42.716Z,996.4
2018-02-15T08:53:43.528Z,996.2
2018-02-15T08:54:44.289Z,996.5
2018-02-15T08:55:45.010Z,996.3
2018-02-15T08:56:45.725Z,996.3
2018-02-15T08:57:46.534Z,996.3
2018-02-15T08:58:48.286Z,996.4
2018-02-15T08:59:48.952Z,996.3
2018-02-15T09:00:49.829Z,996.3
2018-02-15T09:01:50.846Z,996.3
2018-02-15T09:02:51.530Z,996.3
2018-02-15T09:03:52.261Z,996.4
2018-02-15T09:04:52.982Z,996.3
2018-02-15T09:05:53.716Z,996.4
2018-02-15T09:06:54.446Z,996.3
2018-02-15T09:07:55.236Z,996.3
2018-02-15T09:08:55.969Z,996.4
2018-02-15T09:09:56.693Z,996.4
2018-02-15T09:10:57.408Z,996.3
2018-02-15T09:11:58.125Z,996.3
2018-02-15T09:12:59.008Z,996.3
2018-02-15T09:13:59.666Z,996.2
2018-02-15T09:15:00.399Z,996.3
2018-02-15T09:16:01.172Z,996.3
2018-02-15T09:17:01.885Z,996.3
2018-02-15T09:18:02.618Z,996.2
2018-02-15T09:19:04.431Z,996.3
2018-02-15T09:20:05.394Z,996.3
2018-02-15T09:21:06.120Z,996.1
2018-02-15T09:22:06.860Z,996.1
2018-02-15T09:23:07.610Z,996.1
2018-02-15T09:24:08.421Z,996.1
2018-02-15T09:25:09.141Z,996.1
2018-02-15T09:26:09.858Z,996.1
2018-02-15T09:27:10.575Z,996.1
2018-02-15T09:28:11.584Z,996.1
2018-02-15T09:29:12.286Z,996.1
2018-02-15T09:30:13.008Z,996.1
2018-02-15T09:31:13.817Z,996.1
2018-02-15T09:32:14.626Z,996.1
2018-02-15T09:33:15.396Z,996.1
2018-02-15T09:34:16.174Z,996.1
2018-02-15T09:35:16.896Z,996.1
2018-02-15T09:36:17.636Z,996.0
2018-02-15T09:37:18.407Z,996.1
2018-02-15T09:38:19.160Z,996.1
2018-02-15T09:39:19.940Z,996.1
2018-02-15T09:40:20.647Z,996.1
2018-02-15T09:41:21.449Z,996.2
2018-02-15T09:42:22.176Z,996.2
2018-02-15T09:43:23.160Z,996.1
2018-02-15T09:44:24.047Z,996.1
2018-02-15T09:45:24.876Z,996.1
2018-02-15T09:46:25.603Z,996.1
2018-02-15T09:47:26.329Z,996.2
2018-02-15T09:48:28.219Z,996.1
2018-02-15T09:49:30.244Z,996.2
2018-02-15T09:50:31.399Z,996.2
2018-02-15T09:51:32.233Z,996.2
2018-02-15T09:52:33.011Z,996.2
2018-02-15T09:53:33.744Z,996.1
2018-02-15T09:54:34.464Z,996.2
2018-02-15T09:55:35.188Z,996.1
2018-02-15T09:56:35.939Z,996.1
2018-02-15T09:57:36.686Z,996.1
2018-02-15T09:58:37.420Z,996.1
2018-02-15T09:59:38.175Z,996.2
2018-02-15T10:00:38.953Z,996.2
2018-02-15T10:01:39.680Z,996.3
2018-02-15T10:02:40.408Z,996.2
2018-02-15T10:03:41.219Z,996.2
2018-02-15T10:04:41.940Z,996.2
2018-02-15T10:05:42.722Z,996.2
2018-02-15T10:06:43.449Z,996.1
2018-02-15T10:07:44.166Z,996.1
2018-02-15T10:08:44.907Z,996.2
2018-02-15T10:09:45.635Z,996.2
2018-02-15T10:10:46.413Z,996.2
2018-02-15T10:11:47.204Z,996.2
2018-02-15T10:12:47.958Z,996.2
2018-02-15T10:13:48.748Z,996.1
2018-02-15T10:14:49.476Z,996.1
2018-02-15T10:15:50.219Z,996.1
2018-02-15T10:16:51.005Z,996.1
2018-02-15T10:17:51.803Z,996.1
2018-02-15T10:18:52.596Z,996.0
2018-02-15T10:19:53.320Z,996.0
2018-02-15T10:20:54.055Z,996.1
2018-02-15T10:21:54.789Z,996.0
2018-02-15T10:22:55.515Z,996.1
2018-02-15T10:23:56.259Z,996.1
2018-02-15T10:24:56.987Z,996.0
2018-02-15T10:25:57.720Z,995.9
2018-02-15T10:26:58.450Z,996.0
2018-02-15T10:27:59.216Z,995.9
2018-02-15T10:28:59.946Z,996.0
2018-02-15T10:30:00.655Z,996.0
2018-02-15T10:31:01.370Z,996.0
2018-02-15T10:32:02.172Z,996.0
2018-02-15T10:33:02.961Z,996.0
2018-02-15T10:34:03.752Z,996.0
2018-02-15T10:35:04.497Z,995.9
2018-02-15T10:36:05.274Z,995.9
2018-02-15T10:37:06.009Z,995.9
2018-02-15T10:38:06.811Z,995.9
2018-02-15T10:39:07.574Z,995.8
2018-02-15T10:40:08.303Z,995.7
2018-02-15T10:41:09.142Z,995.8
2018-02-15T10:42:09.938Z,995.8
2018-02-15T10:43:10.669Z,995.8
2018-02-15T10:44:11.399Z,995.9
2018-02-15T10:45:12.131Z,995.9
2018-02-15T10:46:12.844Z,995.8
2018-02-15T10:47:13.640Z,995.8
2018-02-15T10:48:14.952Z,995.8
2018-02-15T10:49:16.549Z,995.7
2018-02-15T10:50:17.465Z,995.9
2018-02-15T10:51:18.195Z,995.8
2018-02-15T10:52:18.909Z,995.8
2018-02-15T10:53:19.638Z,995.8
2018-02-15T10:54:20.365Z,995.8
2018-02-15T10:55:21.136Z,995.8
2018-02-15T10:56:21.873Z,995.9
2018-02-15T10:57:22.650Z,995.8
2018-02-15T10:58:23.375Z,995.7
2018-02-15T10:59:24.404Z,995.8
2018-02-15T11:00:25.040Z,995.8
2018-02-15T11:01:25.777Z,995.8
2018-02-15T11:02:27.015Z,995.8
2018-02-15T11:03:28.956Z,995.8
2018-02-15T11:04:30.938Z,995.7
2018-02-15T11:05:33.104Z,995.8
2018-02-15T11:06:34.365Z,995.7
2018-02-15T11:07:37.013Z,995.8
2018-02-15T11:08:38.849Z,995.7
2018-02-15T11:09:40.396Z,995.6
2018-02-15T11:10:41.076Z,995.7
2018-02-15T11:11:41.805Z,995.6
2018-02-15T11:12:42.989Z,995.6
2018-02-15T11:13:43.718Z,995.6
2018-02-15T11:14:45.188Z,995.6
2018-02-15T11:15:46.094Z,995.5
2018-02-15T11:16:46.873Z,995.7
2018-02-15T11:17:47.669Z,995.7
2018-02-15T11:18:48.459Z,995.6
2018-02-15T11:19:49.338Z,995.7
2018-02-15T11:20:50.105Z,995.6
2018-02-15T11:21:50.879Z,995.7
2018-02-15T11:22:51.596Z,995.7
2018-02-15T11:23:52.325Z,995.7
2018-02-15T11:24:53.060Z,995.8
2018-02-15T11:25:53.846Z,995.7
2018-02-15T11:26:54.576Z,995.7
2018-02-15T11:27:55.334Z,995.8
2018-02-15T11:28:56.099Z,995.8
2018-02-15T11:29:56.826Z,995.8
2018-02-15T11:30:57.556Z,995.8
2018-02-15T11:31:58.326Z,995.7
2018-02-15T11:32:59.048Z,995.7
2018-02-15T11:33:59.791Z,995.7
2018-02-15T11:35:00.523Z,995.7
2018-02-15T11:36:01.292Z,995.8
2018-02-15T11:37:02.034Z,995.8
2018-02-15T11:38:02.807Z,995.7
2018-02-15T11:39:03.600Z,995.8
2018-02-15T11:40:04.316Z,995.8
2018-02-15T11:41:05.039Z,995.9
2018-02-15T11:42:05.786Z,995.8
2018-02-15T11:43:06.629Z,995.8
2018-02-15T11:44:07.414Z,995.8
2018-02-15T11:45:08.216Z,995.8
2018-02-15T11:46:08.953Z,995.8
2018-02-15T11:47:09.669Z,995.9
2018-02-15T11:48:10.394Z,995.9
2018-02-15T11:49:11.129Z,995.9
2018-02-15T11:50:11.852Z,995.9
2018-02-15T11:51:12.627Z,995.9
2018-02-15T11:52:13.356Z,996.0
2018-02-15T11:53:14.980Z,996.0
2018-02-15T11:54:15.650Z,995.9
2018-02-15T11:55:16.446Z,995.9
2018-02-15T11:56:17.169Z,995.9
2018-02-15T11:57:17.909Z,995.9
2018-02-15T11:58:18.686Z,995.9
2018-02-15T11:59:19.465Z,995.9
2018-02-15T12:00:20.246Z,996.0
2018-02-15T12:01:21.042Z,995.9
2018-02-15T12:02:21.756Z,996.0
2018-02-15T12:03:22.466Z,995.9
2018-02-15T12:04:23.188Z,996.0
2018-02-15T12:05:23.923Z,996.0
2018-02-15T12:06:24.657Z,995.9
2018-02-15T12:07:25.373Z,996.0
2018-02-15T12:08:26.099Z,995.9
2018-02-15T12:09:26.821Z,995.9
2018-02-15T12:10:27.547Z,995.9
2018-02-15T12:11:28.267Z,995.9
2018-02-15T12:12:29.103Z,995.9
2018-02-15T12:13:29.838Z,995.9
2018-02-15T12:14:30.615Z,995.9
2018-02-15T12:15:31.370Z,995.9
2018-02-15T12:16:32.107Z,995.8
2018-02-15T12:17:32.894Z,995.9
2018-02-15T12:18:33.651Z,995.9
2018-02-15T12:19:34.391Z,996.0
2018-02-15T12:20:35.179Z,996.0
2018-02-15T12:21:35.919Z,996.0
2018-02-15T12:22:36.692Z,996.0
2018-02-15T12:23:37.470Z,995.9
2018-02-15T12:24:38.184Z,996.0
2018-02-15T12:25:38.945Z,995.9
2018-02-15T12:26:39.699Z,995.9
2018-02-15T12:27:40.416Z,995.9
2018-02-15T12:28:41.171Z,995.9
2018-02-15T12:29:41.916Z,995.9
2018-02-15T12:30:42.653Z,995.9
2018-02-15T12:31:43.415Z,995.9
2018-02-15T12:32:44.151Z,995.8
2018-02-15T12:33:44.944Z,995.8
2018-02-15T12:34:45.671Z,995.8
2018-02-15T12:35:46.405Z,995.8
2018-02-15T12:36:47.178Z,995.8
2018-02-15T12:37:47.900Z,995.8
2018-02-15T12:38:48.618Z,995.9
2018-02-15T12:39:49.409Z,995.8
2018-02-15T12:40:50.187Z,995.8
2018-02-15T12:41:50.862Z,995.8
2018-02-15T12:42:51.582Z,995.8
2018-02-15T12:43:52.319Z,995.8
2018-02-15T12:44:53.039Z,995.8
2018-02-15T12:45:53.772Z,995.8
2018-02-15T12:46:54.617Z,995.8
2018-02-15T12:47:55.366Z,995.7
2018-02-15T12:48:56.192Z,995.7
2018-02-15T12:49:56.868Z,995.7
2018-02-15T12:50:57.601Z,995.7
2018-02-15T12:51:58.361Z,995.7
2018-02-15T12:52:59.070Z,995.7
2018-02-15T12:53:59.827Z,995.7
2018-02-15T12:55:00.578Z,995.7
2018-02-15T12:56:01.299Z,995.7
2018-02-15T12:57:02.060Z,995.6
2018-02-15T12:58:02.763Z,995.6
2018-02-15T12:59:03.533Z,995.6
2018-02-15T13:00:04.342Z,995.5
2018-02-15T13:01:05.069Z,995.5